Time;durP1;ratioP1;P1;durP2;ratioP2;P2;SDS_P1;SDS_P2;PMS_P1;PMS_P2;Temp;Humidity;BMP_temperature;BMP_pressure;BME280_temperature;BME280_humidity;BME280_pressure;Samples;Min_cycle;Max_cycle;Signal;HPM_P1;HPM_P2
2023/07/27 00:02:08;;;;;;;2.60;2.50;;;20.00;99.90;;;20.21;72.61;100797.16;5042307;28;20141;-64
2023/07/27 00:04:36;;;;;;;3.05;2.95;;;19.80;99.90;;;20.12;73.20;100794.88;5042007;28;20135;-64
2023/07/27 00:07:05;;;;;;;2.50;2.40;;;19.70;99.90;;;19.94;73.79;100792.13;5041490;28;20044;-64
2023/07/27 00:09:33;;;;;;;2.70;2.60;;;19.50;99.90;;;19.86;74.44;100780.84;5046437;28;20491;-64
2023/07/27 00:12:02;;;;;;;3.80;3.50;;;19.50;99.90;;;19.69;75.37;100777.09;5044212;28;20042;-64
2023/07/27 00:14:32;;;;;;;2.97;2.88;;;19.30;99.90;;;19.62;76.34;100780.09;5047426;28;20056;-63
2023/07/27 00:17:00;;;;;;;3.40;3.30;;;19.20;99.90;;;19.59;76.87;100786.47;5035672;28;20041;-64
2023/07/27 00:19:29;;;;;;;3.10;3.00;;;19.10;99.90;;;19.55;77.77;100786.69;5035364;28;20459;-64
2023/07/27 00:21:57;;;;;;;2.83;2.72;;;19.10;99.90;;;19.50;78.46;100772.56;5035558;28;20465;-63
2023/07/27 00:24:25;;;;;;;2.80;2.70;;;19.10;99.90;;;19.42;79.18;100786.31;5036899;28;20069;-64
2023/07/27 00:26:54;;;;;;;2.92;2.83;;;19.00;99.90;;;19.25;80.21;100779.84;5052611;28;20135;-64
2023/07/27 00:29:22;;;;;;;2.50;2.40;;;18.90;99.90;;;19.12;81.15;100770.59;5057643;28;20057;-63
2023/07/27 00:31:52;;;;;;;3.33;3.13;;;18.80;99.90;;;19.03;82.20;100766.44;5043825;28;20073;-64
2023/07/27 00:34:21;;;;;;;2.90;2.80;;;18.70;99.90;;;19.03;82.83;100763.78;5044225;28;20144;-64
2023/07/27 00:36:50;;;;;;;3.20;3.00;;;18.60;99.90;;;18.93;83.44;100754.34;5058746;28;20060;-64
2023/07/27 00:39:19;;;;;;;2.50;2.40;;;18.60;99.90;;;18.92;83.84;100756.19;5043322;28;20068;-64
2023/07/27 00:41:48;;;;;;;3.03;2.92;;;18.60;99.90;;;18.87;84.71;100752.78;5035229;28;20061;-63
2023/07/27 00:44:16;;;;;;;2.97;2.88;;;18.50;99.90;;;18.94;84.83;100748.06;5035249;28;20037;-64
2023/07/27 00:46:45;;;;;;;2.80;2.70;;;18.50;99.90;;;18.92;85.27;100740.09;5034778;28;20054;-64
2023/07/27 00:49:15;;;;;;;2.50;2.40;;;18.50;99.90;;;18.85;85.92;100727.84;5056132;28;20438;-63
2023/07/27 00:51:45;;;;;;;9.87;3.90;;;18.50;99.90;;;18.65;86.75;100727.81;5044634;28;20056;-64
2023/07/27 00:54:15;;;;;;;2.85;2.75;;;18.40;99.90;;;18.74;87.38;100730.09;5045655;28;20294;-63
2023/07/27 00:56:43;;;;;;;2.73;2.63;;;18.40;99.90;;;18.81;87.39;100718.19;5043587;28;20440;-64
2023/07/27 00:59:12;;;;;;;2.97;2.88;;;18.40;99.90;;;18.56;88.15;100713.91;5058242;28;20319;-63
2023/07/27 01:01:40;;;;;;;2.67;2.58;;;18.30;99.90;;;18.25;89.74;100714.19;5075219;28;20131;-64
2023/07/27 01:04:09;;;;;;;2.92;2.83;;;18.00;99.90;;;18.15;90.55;100698.50;5046199;28;20040;-64
2023/07/27 01:06:38;;;;;;;2.60;2.50;;;17.90;99.90;;;17.93;91.51;100695.78;5043695;28;20114;-64
2023/07/27 01:09:07;;;;;;;2.60;2.50;;;17.70;99.90;;;17.78;92.68;100688.31;5045228;28;20464;-64
2023/07/27 01:11:43;;;;;;;3.20;3.10;;;17.50;99.90;;;17.82;93.21;100688.16;5044529;28;20072;-64
2023/07/27 01:14:22;;;;;;;2.97;2.88;;;17.50;99.90;;;17.66;93.29;100680.72;5042864;28;20073;-63
2023/07/27 01:17:02;;;;;;;2.90;2.80;;;17.40;99.90;;;17.53;94.09;100671.41;5043503;28;20041;-63
2023/07/27 01:20:05;;;;;;;2.90;2.80;;;17.30;99.90;;;17.68;93.40;100668.16;5058777;28;20483;-64
2023/07/27 01:23:25;;;;;;;2.97;2.88;;;17.40;99.90;;;17.58;93.47;100658.72;5032560;28;20064;-64
2023/07/27 01:26:30;;;;;;;3.30;3.20;;;17.30;99.90;;;17.48;94.64;100654.63;5017378;28;20554;-64
2023/07/27 01:29:16;;;;;;;3.47;3.28;;;17.30;99.90;;;17.33;96.07;100652.47;5022636;28;20063;-64
2023/07/27 01:31:48;;;;;;;2.88;2.78;;;17.10;99.90;;;17.20;96.66;100614.63;5046203;28;20043;-64
2023/07/27 01:34:22;;;;;;;3.30;3.20;;;17.10;99.90;;;17.35;97.16;100634.59;5045320;28;20052;-64
2023/07/27 01:36:56;;;;;;;2.80;2.70;;;17.10;99.90;;;17.33;98.00;100625.75;5044056;28;20099;-63
2023/07/27 01:39:27;;;;;;;3.42;3.22;;;17.10;99.90;;;17.25;98.84;100631.38;5058453;28;20406;-63
2023/07/27 01:41:56;;;;;;;3.22;3.13;;;17.00;99.90;;;17.01;99.55;100614.38;5057507;28;20056;-63
2023/07/27 01:44:28;;;;;;;3.35;3.15;;;16.80;99.90;;;16.97;100.00;100612.78;5049328;28;20136;-63
2023/07/27 01:47:00;;;;;;;3.15;3.05;;;16.60;99.90;;;16.93;100.00;100607.56;5034041;28;20050;-63
2023/07/27 01:49:29;;;;;;;3.72;3.53;;;16.60;99.90;;;16.95;100.00;100600.38;5033957;28;20081;-63
2023/07/27 01:51:59;;;;;;;2.90;2.80;;;16.60;99.90;;;17.09;100.00;100606.13;5036009;28;20049;-64
2023/07/27 01:54:28;;;;;;;3.65;3.45;;;16.80;99.90;;;17.17;100.00;100595.16;5058272;28;20390;-64
2023/07/27 01:56:59;;;;;;;2.70;2.60;;;16.90;99.90;;;17.21;100.00;100594.97;5057216;28;20046;-64
2023/07/27 01:59:28;;;;;;;3.25;3.15;;;17.00;99.90;;;17.23;100.00;100587.78;5032502;28;20049;-63
2023/07/27 02:01:58;;;;;;;3.78;3.47;;;17.00;99.90;;;17.04;100.00;100589.38;5033677;28;20159;-63
2023/07/27 02:04:26;;;;;;;3.40;3.25;;;16.80;99.90;;;16.99;100.00;100577.97;5033387;28;20499;-63
2023/07/27 02:06:55;;;;;;;3.67;3.47;;;16.70;99.90;;;16.99;100.00;100576.16;5034866;28;20487;-64
2023/07/27 02:09:23;;;;;;;4.18;3.95;;;16.70;99.90;;;17.00;100.00;100575.25;5043541;28;20045;-64
2023/07/27 02:11:56;;;;;;;3.40;3.30;;;16.70;99.90;;;17.06;100.00;100564.34;5043859;28;20447;-63
2023/07/27 02:14:33;;;;;;;3.50;3.40;;;16.70;99.90;;;16.99;100.00;100549.44;5042173;28;20103;-64
2023/07/27 02:17:11;;;;;;;3.45;3.33;;;16.80;99.90;;;16.95;100.00;100550.50;5042687;28;20045;-63
2023/07/27 02:19:43;;;;;;;3.33;3.22;;;16.70;99.90;;;16.93;100.00;100548.78;5043236;28;20040;-63
2023/07/27 02:22:14;;;;;;;3.58;3.38;;;16.70;99.90;;;16.99;100.00;100551.25;5077191;28;20076;-63
2023/07/27 02:24:42;;;;;;;4.90;4.60;;;16.70;99.90;;;16.93;100.00;100522.97;5033292;28;20445;-63
2023/07/27 02:27:11;;;;;;;4.13;3.83;;;16.70;99.90;;;16.80;100.00;100518.94;5033259;28;20080;-63
2023/07/27 02:29:40;;;;;;;3.78;3.58;;;16.60;99.90;;;16.78;100.00;100509.28;5048391;28;20049;-63
2023/07/27 02:32:10;;;;;;;3.50;3.30;;;16.50;99.90;;;16.81;100.00;100496.66;5049672;28;20057;-62
2023/07/27 02:34:39;;;;;;;7.05;5.38;;;16.60;99.90;;;16.71;100.00;100524.63;5043209;28;20053;-63
2023/07/27 02:37:14;;;;;;;4.13;3.83;;;16.50;99.90;;;16.66;100.00;100499.00;5059834;28;20504;-63
2023/07/27 02:39:42;;;;;;;4.03;3.65;;;16.40;99.90;;;16.67;100.00;100488.25;5056879;28;20049;-63
2023/07/27 02:42:11;;;;;;;4.25;3.80;;;16.40;99.90;;;16.61;100.00;100491.16;5048474;28;20060;-62
2023/07/27 02:44:39;;;;;;;3.10;3.00;;;16.30;99.90;;;16.67;100.00;100482.94;5041018;28;20083;-62
2023/07/27 02:47:07;;;;;;;3.10;3.00;;;16.40;99.90;;;16.80;100.00;100475.38;5041835;28;20053;-62
2023/07/27 02:49:37;;;;;;;3.50;3.40;;;16.50;99.90;;;16.72;100.00;100467.63;5058983;28;20139;-63
2023/07/27 02:52:06;;;;;;;4.57;4.23;;;16.50;99.90;;;16.72;100.00;100467.63;5042695;28;20087;-63
2023/07/27 02:54:34;;;;;;;5.03;4.63;;;16.50;99.90;;;16.50;100.00;100479.97;5058090;28;20110;-63
2023/07/27 02:57:03;;;;;;;3.95;3.65;;;16.30;99.90;;;16.49;100.00;100464.88;5055373;28;20061;-63
2023/07/27 02:59:40;;;;;;;4.32;4.05;;;16.20;99.90;;;16.56;100.00;100453.06;5039734;28;20053;-62
2023/07/27 03:02:09;;;;;;;4.18;3.97;;;16.30;99.90;;;16.62;100.00;100450.19;5059321;28;20421;-63
2023/07/27 03:04:41;;;;;;;4.03;3.83;;;16.40;99.90;;;16.63;100.00;100449.25;5054121;28;20049;-63
2023/07/27 03:07:12;;;;;;;3.72;3.55;;;16.40;99.90;;;16.69;100.00;100438.34;5075025;28;20049;-63
2023/07/27 03:09:41;;;;;;;4.10;3.85;;;16.40;99.90;;;16.75;100.00;100439.91;5057508;28;20049;-64
2023/07/27 03:12:09;;;;;;;4.70;4.32;;;16.50;99.90;;;16.67;100.00;100424.16;5043633;28;20065;-64
2023/07/27 03:14:38;;;;;;;6.80;5.53;;;16.40;99.90;;;16.51;100.00;100420.28;5048084;28;20057;-63
2023/07/27 03:17:08;;;;;;;5.30;4.90;;;16.30;99.90;;;16.50;100.00;100418.56;5059783;28;20033;-63
2023/07/27 03:19:36;;;;;;;5.50;5.03;;;16.30;99.90;;;16.67;100.00;100413.50;5041057;28;20056;-63
2023/07/27 03:22:06;;;;;;;3.60;3.40;;;16.40;99.90;;;16.56;100.00;100390.78;5043588;28;20040;-63
2023/07/27 03:24:35;;;;;;;4.70;4.38;;;16.40;99.90;;;16.82;100.00;100402.22;5057523;28;20158;-63
2023/07/27 03:27:04;;;;;;;3.35;3.22;;;16.50;99.90;;;16.78;100.00;100407.75;5042966;28;20479;-63
2023/07/27 03:29:32;;;;;;;3.78;3.58;;;16.50;99.90;;;16.75;100.00;100421.22;5054613;28;20558;-63
2023/07/27 03:32:01;;;;;;;4.65;4.28;;;16.50;99.90;;;16.63;100.00;100384.25;5043115;28;20049;-63
2023/07/27 03:34:29;;;;;;;4.85;4.55;;;16.50;99.90;;;16.68;100.00;100391.22;5041750;28;20478;-63
2023/07/27 03:36:57;;;;;;;3.53;3.38;;;16.40;99.90;;;16.75;100.00;100392.72;5043496;28;20103;-63
2023/07/27 03:39:27;;;;;;;3.25;3.15;;;16.40;99.90;;;16.76;100.00;100383.75;5040792;28;20104;-63
2023/07/27 03:41:56;;;;;;;3.33;3.22;;;16.40;99.90;;;16.87;100.00;100389.59;5052702;28;20057;-63
2023/07/27 03:44:24;;;;;;;4.05;3.85;;;16.60;99.90;;;16.91;100.00;100372.50;5060190;28;20041;-63
2023/07/27 03:46:53;;;;;;;3.53;3.33;;;16.60;99.90;;;16.96;100.00;100373.19;5047260;28;20049;-63
2023/07/27 03:49:21;;;;;;;3.42;3.33;;;16.70;99.90;;;16.89;100.00;100358.34;5057519;28;20069;-62
2023/07/27 03:51:50;;;;;;;5.53;3.80;;;16.60;99.90;;;16.89;100.00;100371.69;5045939;28;20056;-63
2023/07/27 03:54:18;;;;;;;4.47;4.07;;;16.60;99.90;;;16.91;100.00;100352.94;5061293;28;20449;-63
2023/07/27 03:56:48;;;;;;;3.22;3.13;;;16.60;99.90;;;17.02;100.00;100348.91;5061996;28;20053;-63
2023/07/27 03:59:16;;;;;;;3.60;3.40;;;16.70;99.90;;;17.12;100.00;100352.97;5077127;28;20045;-63
2023/07/27 04:01:44;;;;;;;3.10;3.00;;;16.80;99.90;;;17.13;100.00;100343.13;5062538;28;20053;-63
2023/07/27 04:04:13;;;;;;;3.28;3.08;;;16.90;99.90;;;17.17;100.00;100343.91;5043955;28;20046;-63
2023/07/27 04:06:41;;;;;;;3.45;3.35;;;16.90;99.90;;;17.09;100.00;100353.06;5035638;28;20487;-63
2023/07/27 04:09:10;;;;;;;4.18;3.88;;;16.80;99.90;;;17.10;100.00;100348.63;5035717;28;20107;-62
2023/07/27 04:11:38;;;;;;;3.10;3.00;;;16.80;99.90;;;17.29;100.00;100338.94;5035780;28;20053;-63
2023/07/27 04:14:08;;;;;;;3.83;3.63;;;17.00;99.90;;;17.24;100.00;100343.59;5060338;28;20053;-63
2023/07/27 04:16:37;;;;;;;3.03;2.93;;;17.00;99.90;;;17.35;100.00;100337.81;5061259;28;20040;-63
2023/07/27 04:19:05;;;;;;;3.30;3.20;;;17.00;99.90;;;17.37;100.00;100327.91;5045918;28;20046;-63
2023/07/27 04:21:34;;;;;;;3.95;3.75;;;17.00;99.90;;;17.23;100.00;100308.91;5051294;28;20126;-62
2023/07/27 04:24:03;;;;;;;3.83;3.63;;;17.10;99.90;;;17.46;100.00;100316.88;5062065;28;20143;-63
2023/07/27 04:26:31;;;;;;;3.35;3.15;;;17.20;99.90;;;17.51;100.00;100312.22;5059470;28;20095;-63
2023/07/27 04:29:00;;;;;;;2.90;2.80;;;17.20;99.90;;;17.63;100.00;100323.28;5079451;28;20052;-63
2023/07/27 04:31:30;;;;;;;3.40;3.30;;;17.30;99.90;;;17.66;100.00;100316.91;5035699;28;20445;-63
2023/07/27 04:33:58;;;;;;;3.53;3.37;;;17.40;99.90;;;17.75;100.00;100320.06;5045482;28;20063;-62
2023/07/27 04:36:26;;;;;;;3.22;3.13;;;17.40;99.90;;;17.84;100.00;100311.69;5035372;28;20377;-61
2023/07/27 04:38:55;;;;;;;3.60;3.17;;;17.50;99.90;;;17.87;100.00;100316.00;5035045;28;20060;-63
2023/07/27 04:41:23;;;;;;;3.03;2.92;;;17.50;99.90;;;17.85;100.00;100312.53;5054613;28;20485;-62
2023/07/27 04:43:52;;;;;;;2.80;2.70;;;17.60;99.90;;;17.82;100.00;100302.84;5045595;28;20497;-62
2023/07/27 04:46:20;;;;;;;2.90;2.80;;;17.50;99.90;;;17.90;100.00;100294.50;5044175;28;20053;-62
2023/07/27 04:48:50;;;;;;;3.13;3.03;;;17.60;99.90;;;17.98;100.00;100292.34;5078487;28;20044;-62
2023/07/27 04:51:18;;;;;;;3.30;3.13;;;17.70;99.90;;;17.96;100.00;100294.22;5058942;28;20136;-63
2023/07/27 04:53:46;;;;;;;3.00;2.90;;;17.60;99.90;;;18.04;100.00;100282.22;5034816;28;20272;-63
2023/07/27 04:56:15;;;;;;;2.70;2.60;;;17.70;99.90;;;18.12;100.00;100276.53;5050400;28;20056;-62
2023/07/27 04:58:43;;;;;;;2.90;2.80;;;17.80;99.90;;;18.12;100.00;100284.56;5035066;28;20095;-63
2023/07/27 05:01:11;;;;;;;2.80;2.70;;;17.80;99.90;;;18.15;100.00;100276.41;5049972;28;20107;-62
2023/07/27 05:03:40;;;;;;;3.10;3.00;;;17.80;99.90;;;18.18;100.00;100275.38;5043927;28;20060;-62
2023/07/27 05:06:09;;;;;;;2.90;2.80;;;17.80;99.90;;;18.25;100.00;100275.06;5044840;28;20098;-63
2023/07/27 05:08:38;;;;;;;2.80;2.70;;;17.90;99.90;;;18.29;100.00;100270.44;5044794;28;20499;-62
2023/07/27 05:11:07;;;;;;;2.97;2.88;;;17.90;99.90;;;18.37;100.00;100273.63;5043585;28;20044;-62
2023/07/27 05:13:35;;;;;;;2.90;2.80;;;18.00;99.90;;;18.45;100.00;100266.13;5045410;28;20506;-63
2023/07/27 05:16:04;;;;;;;2.97;2.88;;;18.10;99.90;;;18.42;100.00;100267.16;5043022;28;20045;-64
2023/07/27 05:18:32;;;;;;;3.03;2.92;;;18.10;99.90;;;18.31;100.00;100239.94;5034853;28;20124;-62
2023/07/27 05:21:01;;;;;;;2.75;2.65;;;18.10;99.90;;;18.49;100.00;100249.84;5034161;28;20051;-64
2023/07/27 05:23:31;;;;;;;2.65;2.55;;;18.10;99.90;;;18.52;100.00;100256.88;5034433;28;20049;-62
2023/07/27 05:25:59;;;;;;;2.80;2.70;;;18.20;99.90;;;18.57;100.00;100261.09;5034235;28;20041;-62
2023/07/27 05:28:27;;;;;;;2.63;2.53;;;18.20;99.90;;;18.62;100.00;100264.41;5043544;28;20049;-62
2023/07/27 05:30:56;;;;;;;2.63;2.53;;;18.20;99.90;;;18.67;100.00;100267.75;5044242;28;20045;-61
2023/07/27 05:33:24;;;;;;;3.08;2.97;;;18.30;99.90;;;18.66;100.00;100270.50;5044262;28;20107;-60
2023/07/27 05:35:52;;;;;;;2.92;2.83;;;18.30;99.90;;;18.70;100.00;100270.28;5043333;28;20065;-62
2023/07/27 05:38:22;;;;;;;2.88;2.78;;;18.30;99.90;;;18.67;100.00;100256.16;5045232;28;20052;-62
2023/07/27 05:40:51;;;;;;;2.70;2.60;;;18.30;99.90;;;18.70;100.00;100243.47;5042639;28;20060;-63
2023/07/27 05:43:20;;;;;;;2.70;2.60;;;18.30;99.90;;;18.78;100.00;100243.09;5041955;28;20042;-62
2023/07/27 05:45:48;;;;;;;2.60;2.50;;;18.40;99.90;;;18.79;100.00;100245.72;5045043;28;20122;-63
2023/07/27 05:48:16;;;;;;;2.50;2.40;;;18.40;99.90;;;18.81;100.00;100238.47;5042925;28;20044;-63
2023/07/27 05:50:45;;;;;;;2.60;2.50;;;18.40;99.90;;;18.72;100.00;100243.41;5044172;28;20122;-64
2023/07/27 05:53:14;;;;;;;2.90;2.80;;;18.30;99.90;;;18.76;100.00;100237.84;5043655;28;20064;-63
2023/07/27 05:55:42;;;;;;;2.80;2.70;;;18.30;99.90;;;18.69;100.00;100239.06;5043314;28;20040;-64
2023/07/27 05:58:12;;;;;;;2.60;2.50;;;18.30;99.90;;;18.63;100.00;100238.50;5044114;28;20050;-64
2023/07/27 06:01:00;;;;;;;2.85;2.67;;;18.20;99.90;;;18.53;100.00;100213.06;5042164;28;20437;-63
2023/07/27 06:03:29;;;;;;;3.88;3.60;;;18.20;99.90;;;18.57;100.00;100220.03;5043354;28;20123;-63
2023/07/27 06:05:58;;;;;;;2.90;2.80;;;18.20;99.90;;;18.59;100.00;100215.47;5043001;28;20088;-64
2023/07/27 06:08:26;;;;;;;5.95;3.22;;;18.20;99.90;;;18.63;100.00;100220.59;5042550;28;20052;-65
2023/07/27 06:11:03;;;;;;;3.17;3.08;;;18.20;99.90;;;18.72;100.00;100214.81;5056781;28;20122;-64
2023/07/27 06:13:33;;;;;;;2.95;2.85;;;18.30;99.90;;;18.72;100.00;100211.25;5033695;28;20038;-64
2023/07/27 06:16:03;;;;;;;3.30;3.13;;;18.30;99.90;;;18.70;100.00;100210.44;5033185;28;20037;-65
2023/07/27 06:18:31;;;;;;;2.70;2.60;;;18.30;99.90;;;18.77;100.00;100207.44;5033358;28;20426;-64
2023/07/27 06:21:00;;;;;;;2.60;2.50;;;18.40;99.90;;;18.84;100.00;100218.69;5041544;28;20057;-67
2023/07/27 06:23:28;;;;;;;3.78;3.50;;;18.40;99.90;;;18.90;100.00;100216.59;5041466;28;20091;-67
2023/07/27 06:25:57;;;;;;;2.85;2.75;;;18.50;99.90;;;18.87;100.00;100219.41;5044382;28;20045;-66
2023/07/27 06:28:25;;;;;;;2.75;2.65;;;18.50;99.90;;;18.95;100.00;100218.19;5041474;28;20384;-67
2023/07/27 06:30:55;;;;;;;2.70;2.60;;;18.50;99.90;;;18.89;100.00;100220.22;5044711;28;20041;-66
2023/07/27 06:33:23;;;;;;;2.60;2.50;;;18.50;99.90;;;18.90;100.00;100216.59;5033136;28;20107;-66
2023/07/27 06:35:52;;;;;;;2.80;2.70;;;18.50;99.90;;;18.86;100.00;100220.38;5032795;28;20503;-67
2023/07/27 06:38:20;;;;;;;2.85;2.75;;;18.40;99.90;;;18.89;100.00;100214.00;5033029;28;20046;-67
2023/07/27 06:40:49;;;;;;;2.80;2.70;;;18.50;99.90;;;18.96;100.00;100217.22;5034332;28;20120;-65
2023/07/27 06:43:17;;;;;;;2.90;2.80;;;18.50;99.90;;;19.00;100.00;100211.66;5042875;28;20494;-67
2023/07/27 06:45:46;;;;;;;2.60;2.50;;;18.60;99.90;;;19.00;100.00;100208.97;5042948;28;20041;-67
2023/07/27 06:48:16;;;;;;;3.33;3.15;;;18.60;99.90;;;19.05;100.00;100203.41;5042078;28;20144;-67
2023/07/27 06:50:45;;;;;;;9.93;3.60;;;18.60;99.90;;;19.01;100.00;100213.38;5043924;28;20087;-64
2023/07/27 06:53:13;;;;;;;2.72;2.63;;;18.60;99.90;;;19.03;100.00;100206.13;5040553;28;20134;-65
2023/07/27 06:55:42;;;;;;;2.95;2.85;;;18.60;99.90;;;19.01;100.00;100216.06;5032451;28;20045;-65
2023/07/27 06:58:10;;;;;;;2.80;2.70;;;18.60;99.90;;;19.09;100.00;100215.69;5032523;28;20129;-65
2023/07/27 07:00:39;;;;;;;3.00;2.90;;;18.60;99.90;;;19.10;100.00;100190.63;5064428;28;20140;-65
2023/07/27 07:03:08;;;;;;;2.97;2.88;;;18.80;99.90;;;19.30;100.00;100210.13;5034234;28;20053;-65
2023/07/27 07:05:37;;;;;;;2.60;2.50;;;18.80;99.90;;;19.23;100.00;100207.81;5042470;28;20068;-65
2023/07/27 07:08:06;;;;;;;2.70;2.60;;;18.80;99.90;;;19.36;100.00;100215.19;5043369;28;20079;-65
2023/07/27 07:10:34;;;;;;;2.58;2.47;;;18.90;99.90;;;19.42;100.00;100220.25;5041460;28;20071;-65
2023/07/27 07:13:03;;;;;;;3.05;2.95;;;19.00;99.90;;;19.36;100.00;100219.69;5043510;28;20041;-64
2023/07/27 07:15:31;;;;;;;2.90;2.80;;;19.00;99.90;;;19.29;100.00;100221.81;5041423;28;20057;-62
2023/07/27 07:18:00;;;;;;;2.72;2.63;;;18.90;99.90;;;19.34;100.00;100221.59;5047669;28;20041;-64
2023/07/27 07:20:28;;;;;;;2.78;2.67;;;18.90;99.90;;;19.35;100.00;100220.66;5036764;28;20398;-64
2023/07/27 07:22:58;;;;;;;2.65;2.55;;;19.00;99.90;;;19.35;100.00;100215.28;5036495;28;20411;-64
2023/07/27 07:25:26;;;;;;;2.50;2.40;;;18.90;99.90;;;19.33;100.00;100214.50;5036676;28;20394;-64
2023/07/27 07:27:54;;;;;;;3.13;3.03;;;18.90;99.90;;;19.42;100.00;100214.91;5037852;28;20467;-65
2023/07/27 07:30:23;;;;;;;3.13;2.95;;;19.00;99.90;;;19.41;100.00;100221.22;5046233;28;20219;-63
2023/07/27 07:32:51;;;;;;;3.00;2.90;;;19.00;99.90;;;19.21;100.00;100189.13;5046499;28;20050;-64
2023/07/27 07:35:20;;;;;;;2.88;2.67;;;18.90;99.90;;;19.21;100.00;100201.66;5061120;28;20056;-64
2023/07/27 07:37:49;;;;;;;2.58;2.38;;;18.90;99.90;;;19.32;100.00;100210.03;5047516;28;20114;-63
2023/07/27 07:40:20;;;;;;;2.50;2.40;;;18.90;99.90;;;19.39;100.00;100206.13;5044534;28;20555;-58
2023/07/27 07:42:48;;;;;;;2.50;2.40;;;18.90;99.90;;;19.49;100.00;100210.09;5044362;28;20111;-63
2023/07/27 07:45:17;;;;;;;2.40;2.30;;;19.00;99.90;;;19.58;100.00;100206.94;5047296;28;20073;-59
2023/07/27 07:47:45;;;;;;;3.05;2.80;;;19.10;99.90;;;19.58;100.00;100209.63;5045137;28;20483;-60
2023/07/27 07:50:14;;;;;;;2.67;2.58;;;19.20;99.90;;;19.48;100.00;100201.16;5046529;28;20077;-59
2023/07/27 07:52:42;;;;;;;3.05;2.90;;;19.10;99.90;;;19.53;100.00;100200.94;5045793;28;20095;-59
2023/07/27 07:55:11;;;;;;;3.67;3.47;;;19.10;99.90;;;19.57;100.00;100199.81;5046053;28;20048;-59
2023/07/27 07:57:41;;;;;;;2.63;2.53;;;19.20;99.90;;;19.65;100.00;100211.03;5046366;28;20128;-59
2023/07/27 08:00:10;;;;;;;2.93;2.73;;;19.20;99.90;;;19.62;100.00;100212.06;5044675;28;20103;-60
2023/07/27 08:02:41;;;;;;;2.70;2.60;;;19.30;99.90;;;19.71;100.00;100197.28;5043714;28;20092;-60
2023/07/27 08:05:10;;;;;;;3.20;3.00;;;19.30;99.90;;;19.65;100.00;100202.97;5044020;28;20494;-59
2023/07/27 08:07:38;;;;;;;2.83;2.72;;;19.20;99.90;;;19.66;100.00;100185.94;5047065;28;20073;-59
2023/07/27 08:10:07;;;;;;;2.60;2.50;;;19.30;99.90;;;19.71;100.00;100194.59;5044773;28;20099;-59
2023/07/27 08:12:36;;;;;;;2.75;2.65;;;19.30;99.90;;;19.79;100.00;100200.44;5046079;28;20045;-59
2023/07/27 08:15:08;;;;;;;2.75;2.65;;;19.30;99.90;;;19.84;100.00;100190.31;5045491;28;20445;-60
2023/07/27 08:17:36;;;;;;;2.67;2.58;;;19.40;99.90;;;19.75;100.00;100185.44;5060235;28;20053;-60
2023/07/27 08:20:07;;;;;;;2.72;2.63;;;19.30;99.90;;;19.79;100.00;100193.25;5046714;28;20049;-64
2023/07/27 08:22:35;;;;;;;2.88;2.78;;;19.40;99.90;;;19.78;100.00;100180.78;5043925;28;20459;-60
2023/07/27 08:25:05;;;;;;;2.72;2.63;;;19.40;99.90;;;19.78;100.00;100196.03;5043655;28;20045;-60
2023/07/27 08:27:50;;;;;;;2.70;2.60;;;19.30;99.90;;;19.82;100.00;100186.00;5043921;28;20045;-59
2023/07/27 08:30:20;;;;;;;2.47;2.38;;;19.40;99.90;;;19.90;100.00;100197.19;5046714;28;20037;-59
2023/07/27 08:32:49;;;;;;;2.70;2.50;;;19.50;99.90;;;19.91;100.00;100189.06;5035473;28;20041;-59
2023/07/27 08:35:17;;;;;;;2.92;2.83;;;19.50;99.90;;;19.90;100.00;100191.84;5035217;28;20486;-60
2023/07/27 08:37:46;;;;;;;2.97;2.88;;;19.40;99.90;;;19.96;100.00;100186.97;5035275;28;20454;-59
2023/07/27 08:40:14;;;;;;;3.22;3.03;;;19.50;99.90;;;19.91;100.00;100183.69;5036595;28;20132;-59
2023/07/27 08:42:44;;;;;;;2.70;2.60;;;19.50;99.90;;;19.87;100.00;100194.66;5045516;28;20041;-59
2023/07/27 08:45:15;;;;;;;2.72;2.63;;;19.50;99.90;;;20.03;100.00;100185.72;5060818;28;20061;-60
2023/07/27 08:47:44;;;;;;;;;;;19.60;99.90;;;19.99;100.00;100194.88;5044277;28;20046;-60
2023/07/27 08:50:14;;;;;;;3.10;3.00;;;19.50;99.90;;;20.02;100.00;100189.34;5046291;28;20404;-60
2023/07/27 08:52:46;;;;;;;2.60;2.50;;;19.60;99.90;;;20.01;100.00;100194.81;5047038;28;20452;-59
2023/07/27 08:55:15;;;;;;;2.80;2.70;;;19.60;99.90;;;20.04;100.00;100203.56;5059526;28;20045;-59
2023/07/27 08:57:44;;;;;;;2.50;2.40;;;19.60;99.90;;;20.05;100.00;100205.31;5045556;28;20041;-61
2023/07/27 09:00:13;;;;;;;2.50;2.40;;;19.60;99.90;;;20.12;100.00;100195.06;5044438;28;20133;-60
2023/07/27 09:02:43;;;;;;;2.63;2.53;;;19.70;99.90;;;20.01;100.00;100170.63;5044567;28;20052;-59
2023/07/27 09:05:12;;;;;;;2.92;2.83;;;19.70;99.90;;;20.26;100.00;100197.94;5045856;28;20246;-59
2023/07/27 09:07:41;;;;;;;7.63;2.70;;;19.80;99.90;;;20.14;100.00;100207.47;5043076;28;20071;-60
2023/07/27 09:10:11;;;;;;;2.83;2.72;;;19.70;99.90;;;20.09;100.00;100196.09;5046597;28;20445;-60
2023/07/27 09:12:41;;;;;;;2.90;2.80;;;19.70;99.90;;;20.16;100.00;100197.53;5042679;28;20041;-61
2023/07/27 09:15:14;;;;;;;3.05;2.95;;;19.70;99.90;;;20.20;100.00;100193.75;5045800;28;20526;-60
2023/07/27 09:17:44;;;;;;;2.88;2.78;;;19.80;99.90;;;20.21;100.00;100198.16;5044296;28;20068;-59
2023/07/27 09:20:13;;;;;;;;;;;19.80;99.90;;;20.14;100.00;100188.69;5044177;28;20133;-59
2023/07/27 09:22:45;;;;;;;2.80;2.70;;;19.80;99.90;;;20.29;100.00;100197.75;5060768;28;19952;-59
2023/07/27 09:25:16;;;;;;;3.55;3.35;;;19.80;99.90;;;20.29;100.00;100198.63;5041337;28;20495;-59
2023/07/27 09:27:46;;;;;;;2.50;2.40;;;19.90;99.90;;;20.28;100.00;100196.91;5042764;28;20503;-59
2023/07/27 09:30:17;;;;;;;4.50;2.83;;;19.90;99.90;;;20.25;100.00;100198.84;5060607;28;20048;-59
2023/07/27 09:32:49;;;;;;;2.53;2.42;;;19.80;99.90;;;20.29;100.00;100201.31;5043981;28;20069;-58
2023/07/27 09:35:20;;;;;;;2.50;2.40;;;19.80;99.90;;;20.25;100.00;100197.03;5043260;28;20047;-59
2023/07/27 09:37:51;;;;;;;2.90;2.80;;;19.80;99.90;;;20.30;100.00;100195.00;5046063;28;20051;-58
2023/07/27 09:40:24;;;;;;;2.92;2.72;;;19.80;99.90;;;20.29;100.00;100198.63;5032996;28;20041;-58
2023/07/27 09:42:53;;;;;;;5.30;3.40;;;19.90;99.90;;;20.20;100.00;100198.25;5034271;28;20059;-58
2023/07/27 09:45:21;;;;;;;3.15;3.05;;;19.80;99.90;;;20.25;100.00;100206.91;5034077;28;20045;-58
2023/07/27 09:47:52;;;;;;;2.55;2.45;;;19.80;99.90;;;20.22;100.00;100191.84;5036074;28;20053;-59
2023/07/27 09:50:22;;;;;;;2.75;2.65;;;19.80;99.90;;;20.41;100.00;100205.13;5043001;28;20081;-58
2023/07/27 09:52:50;;;;;;;2.40;2.30;;;19.90;99.90;;;20.44;100.00;100207.66;5045328;28;20045;-58
2023/07/27 09:55:19;;;;;;;2.90;2.80;;;20.00;99.90;;;20.42;100.00;100201.50;5041871;28;20088;-58
2023/07/27 09:57:48;;;;;;;2.60;2.50;;;20.00;99.90;;;20.38;100.00;100203.47;5041685;28;20045;-58
2023/07/27 10:00:17;;;;;;;2.70;2.60;;;20.00;99.90;;;20.47;100.00;100203.00;5045196;28;20053;-58
2023/07/27 10:02:46;;;;;;;2.40;2.30;;;20.00;99.90;;;20.59;100.00;100204.13;5042178;28;20577;-59
2023/07/27 10:05:15;;;;;;;2.78;2.67;;;20.10;99.90;;;20.61;100.00;100204.91;5044026;28;20049;-58
2023/07/27 10:07:44;;;;;;;2.80;2.70;;;20.20;99.90;;;20.59;100.00;100196.94;5043388;28;20069;-59
2023/07/27 10:10:36;;;;;;;2.85;2.75;;;20.20;99.90;;;20.60;100.00;100187.03;5041718;28;20491;-59
2023/07/27 10:13:13;;;;;;;2.85;2.75;;;20.20;99.90;;;20.71;100.00;100198.06;5043261;28;20045;-60
2023/07/27 10:15:43;;;;;;;2.60;2.50;;;20.30;99.90;;;20.70;100.00;100196.31;5042001;28;20049;-59
2023/07/27 10:18:14;;;;;;;2.47;2.38;;;20.30;99.90;;;20.76;100.00;100206.72;5033208;28;20499;-58
2023/07/27 10:20:45;;;;;;;2.60;2.50;;;20.30;99.90;;;20.60;100.00;100203.16;5033632;28;20051;-59